createdAt,value
2017-03-11T00:00:30.317Z,70.7
2017-03-11T00:01:32.234Z,70.7
2017-03-11T00:02:34.539Z,70.7
2017-03-11T00:03:37.240Z,70.7
2017-03-11T00:04:39.132Z,70.7
2017-03-11T00:05:41.031Z,70.7
2017-03-11T00:06:42.910Z,70.8
2017-03-11T00:07:45.197Z,70.8
2017-03-11T00:08:47.074Z,70.7
2017-03-11T00:09:49.357Z,70.8
2017-03-11T00:10:51.650Z,70.8
2017-03-11T00:11:53.944Z,70.8
2017-03-11T00:12:55.819Z,70.9
2017-03-11T00:13:57.713Z,70.8
2017-03-11T00:14:59.997Z,70.9
2017-03-11T00:16:01.861Z,70.9
2017-03-11T00:17:03.728Z,71
2017-03-11T00:18:06.019Z,71.1
2017-03-11T00:19:08.314Z,71
2017-03-11T00:20:10.200Z,71.1
2017-03-11T00:21:12.088Z,71
2017-03-11T00:22:13.953Z,70.9
2017-03-11T00:23:16.271Z,70.8
2017-03-11T00:24:18.159Z,70.8
2017-03-11T00:25:20.510Z,70.7
2017-03-11T00:26:22.374Z,70.7
2017-03-11T00:27:25.076Z,70.9
2017-03-11T00:28:27.783Z,70.9
2017-03-11T00:29:30.094Z,70.9
2017-03-11T00:30:32.400Z,70.9
2017-03-11T00:31:34.687Z,70.8
2017-03-11T00:32:36.958Z,70.9
2017-03-11T00:33:38.839Z,70.8
2017-03-11T00:34:41.132Z,70.7
2017-03-11T00:35:43.409Z,70.8
2017-03-11T00:36:45.730Z,70.9
2017-03-11T00:37:48.017Z,70.8
2017-03-11T00:38:49.870Z,70.9
2017-03-11T00:39:51.747Z,70.8
2017-03-11T00:40:53.608Z,71
2017-03-11T00:41:55.957Z,70.9
2017-03-11T00:42:57.826Z,70.7
2017-03-11T00:43:59.678Z,70.8
2017-03-11T00:45:02.002Z,70.8
2017-03-11T00:46:04.291Z,70.9
2017-03-11T00:47:06.579Z,71
2017-03-11T00:48:08.444Z,71
2017-03-11T00:49:10.307Z,71
2017-03-11T00:50:12.224Z,71
2017-03-11T00:51:14.510Z,71.1
2017-03-11T00:52:16.372Z,71
2017-03-11T00:53:18.240Z,70.9
2017-03-11T00:54:20.535Z,70.9
2017-03-11T00:55:22.419Z,70.8
2017-03-11T00:56:24.705Z,70.9
2017-03-11T00:57:26.993Z,70.9
2017-03-11T00:58:29.277Z,70.8
2017-03-11T00:59:31.149Z,70.8
2017-03-11T01:00:33.020Z,70.8
2017-03-11T01:01:35.316Z,70.8
2017-03-11T01:02:37.610Z,70.7
2017-03-11T01:03:39.484Z,70.7
2017-03-11T01:04:41.376Z,70.7
2017-03-11T01:05:43.233Z,70.7
2017-03-11T01:06:45.108Z,70.7
2017-03-11T01:07:46.953Z,70.7
2017-03-11T01:08:49.253Z,70.7
2017-03-11T01:09:51.544Z,70.8
2017-03-11T01:10:53.414Z,71
2017-03-11T01:11:55.283Z,70.9
2017-03-11T01:12:57.583Z,71
2017-03-11T01:13:59.437Z,71.1
2017-03-11T01:15:01.311Z,71.1
2017-03-11T01:16:03.591Z,71.1
2017-03-11T01:17:05.462Z,71.1
2017-03-11T01:18:07.333Z,71.2
2017-03-11T01:19:09.213Z,71.3
2017-03-11T01:20:11.073Z,71.2
2017-03-11T01:21:13.355Z,71
2017-03-11T01:22:15.206Z,71
2017-03-11T01:23:17.084Z,70.9
2017-03-11T01:24:18.946Z,70.8
2017-03-11T01:25:20.832Z,71
2017-03-11T01:26:22.717Z,71.1
2017-03-11T01:27:24.558Z,71.1
2017-03-11T01:28:26.422Z,71.1
2017-03-11T01:29:28.287Z,71.1
2017-03-11T01:30:30.174Z,71
2017-03-11T01:31:32.041Z,71
2017-03-11T01:32:33.927Z,70.9
2017-03-11T01:33:36.239Z,71
2017-03-11T01:34:38.544Z,71
2017-03-11T01:35:40.409Z,71
2017-03-11T01:36:43.149Z,70.9
2017-03-11T01:37:45.445Z,70.8
2017-03-11T01:38:47.736Z,70.8
2017-03-11T01:39:49.605Z,70.7
2017-03-11T01:40:51.453Z,70.9
2017-03-11T01:41:53.737Z,70.9
2017-03-11T01:42:55.632Z,70.9
2017-03-11T01:43:57.927Z,71
2017-03-11T01:45:00.223Z,71.1
2017-03-11T01:46:02.084Z,71
2017-03-11T01:47:04.380Z,70.9
2017-03-11T01:48:06.253Z,71
2017-03-11T01:49:08.101Z,71
2017-03-11T01:50:10.418Z,70.9
2017-03-11T01:51:12.285Z,71.1
2017-03-11T01:52:14.174Z,71.1
2017-03-11T01:53:16.049Z,71.1
2017-03-11T01:54:18.339Z,71
2017-03-11T01:55:20.236Z,70.9
2017-03-11T01:56:22.101Z,71
2017-03-11T01:57:23.971Z,71.1
2017-03-11T01:58:25.842Z,71.2
2017-03-11T01:59:27.715Z,71.3
2017-03-11T02:00:29.593Z,71.2
2017-03-11T02:01:31.455Z,71.2
2017-03-11T02:02:33.318Z,71.1
2017-03-11T02:03:35.203Z,71.2
2017-03-11T02:04:37.071Z,71.2
2017-03-11T02:05:38.961Z,71.4
2017-03-11T02:06:41.255Z,71.4
2017-03-11T02:07:43.135Z,71.4
2017-03-11T02:08:45.392Z,71.4
2017-03-11T02:09:47.277Z,71.3
2017-03-11T02:10:49.129Z,71.4
2017-03-11T02:11:50.997Z,71.4
2017-03-11T02:12:53.281Z,71.4
2017-03-11T02:13:55.151Z,71.4
2017-03-11T02:14:57.018Z,71.2
2017-03-11T02:15:58.909Z,71.3
2017-03-11T02:17:00.777Z,71.4
2017-03-11T02:18:02.653Z,71.4
2017-03-11T02:19:04.528Z,71.4
2017-03-11T02:20:06.419Z,71.4
2017-03-11T02:21:08.271Z,71.5
2017-03-11T02:22:10.568Z,71.3
2017-03-11T02:23:12.450Z,71.1
2017-03-11T02:24:14.316Z,71.1
2017-03-11T02:25:16.596Z,71
2017-03-11T02:26:18.884Z,71.1
2017-03-11T02:27:20.769Z,71.2
2017-03-11T02:28:23.062Z,71.3
2017-03-11T02:29:25.351Z,71.3
2017-03-11T02:30:28.055Z,71.4
2017-03-11T02:31:31.198Z,71.4
2017-03-11T02:32:33.483Z,71.4
2017-03-11T02:33:35.354Z,71.4
2017-03-11T02:34:37.242Z,71.4
2017-03-11T02:35:40.395Z,71.3
2017-03-11T02:36:42.261Z,71.3
2017-03-11T02:37:44.154Z,71.4
2017-03-11T02:38:46.014Z,71.5
2017-03-11T02:39:47.888Z,71.4
2017-03-11T02:40:49.759Z,71.4
2017-03-11T02:41:51.642Z,71.4
2017-03-11T02:42:53.920Z,71.4
2017-03-11T02:43:55.782Z,71.4
2017-03-11T02:44:57.653Z,71.2
2017-03-11T02:45:59.537Z,71.2
2017-03-11T02:47:01.841Z,71.1
2017-03-11T02:48:03.719Z,71.1
2017-03-11T02:49:06.866Z,71.1
2017-03-11T02:50:08.721Z,71.1
2017-03-11T02:51:10.598Z,71.1
2017-03-11T02:52:12.465Z,71.1
2017-03-11T02:53:14.752Z,71.1
2017-03-11T02:54:17.076Z,71.2
2017-03-11T02:55:18.933Z,71.3
2017-03-11T02:56:21.199Z,71.4
2017-03-11T02:57:23.076Z,71.2
2017-03-11T02:58:24.946Z,71.1
2017-03-11T02:59:27.673Z,71.1
2017-03-11T03:00:29.552Z,71.1
2017-03-11T03:01:31.423Z,71.3
2017-03-11T03:02:33.724Z,71.4
2017-03-11T03:03:35.576Z,71.5
2017-03-11T03:04:37.880Z,71.5
2017-03-11T03:05:39.733Z,71.5
2017-03-11T03:06:42.049Z,71.5
2017-03-11T03:07:43.921Z,71.5
2017-03-11T03:08:45.779Z,71.6
2017-03-11T03:09:47.637Z,71.6
2017-03-11T03:10:49.525Z,71.6
2017-03-11T03:11:51.400Z,71.6
2017-03-11T03:12:53.685Z,71.6
2017-03-11T03:13:56.396Z,71.6
2017-03-11T03:14:58.699Z,71.6
2017-03-11T03:16:00.574Z,71.6
2017-03-11T03:17:02.865Z,71.7
2017-03-11T03:18:04.713Z,71.6
2017-03-11T03:19:07.013Z,71.5
2017-03-11T03:20:08.910Z,71.3
2017-03-11T03:21:11.218Z,71.2
2017-03-11T03:22:13.072Z,71.1
2017-03-11T03:23:14.956Z,71.2
2017-03-11T03:24:16.829Z,71.1
2017-03-11T03:25:19.149Z,71.2
2017-03-11T03:26:21.020Z,71.2
2017-03-11T03:27:23.308Z,71.1
2017-03-11T03:28:25.195Z,71.2
2017-03-11T03:29:27.066Z,71.3
2017-03-11T03:30:28.956Z,71.4
2017-03-11T03:31:30.824Z,71.4
2017-03-11T03:32:33.122Z,71.3
2017-03-11T03:33:35.000Z,71.3
2017-03-11T03:34:36.859Z,71.4
2017-03-11T03:35:38.731Z,71.3
2017-03-11T03:36:41.022Z,71.3
2017-03-11T03:37:42.917Z,71.4
2017-03-11T03:38:44.772Z,71.4
2017-03-11T03:39:46.622Z,71.3
2017-03-11T03:40:48.920Z,71.3
2017-03-11T03:41:50.805Z,71.4
2017-03-11T03:42:52.672Z,71.5
2017-03-11T03:43:54.949Z,71.4
2017-03-11T03:44:56.841Z,71.5
2017-03-11T03:45:58.803Z,71.6
2017-03-11T03:47:00.700Z,71.6
2017-03-11T03:48:02.554Z,71.6
2017-03-11T03:49:04.437Z,71.7
2017-03-11T03:50:07.135Z,71.7
2017-03-11T03:51:09.044Z,71.7
2017-03-11T03:52:10.897Z,71.7
2017-03-11T03:53:12.801Z,71.7
2017-03-11T03:54:14.667Z,71.7
2017-03-11T03:55:16.527Z,71.6
2017-03-11T03:56:18.381Z,71.6
2017-03-11T03:57:20.246Z,71.6
2017-03-11T03:58:22.567Z,71.7
2017-03-11T03:59:24.439Z,71.7
2017-03-11T04:00:26.319Z,71.6
2017-03-11T04:01:28.167Z,71.5
2017-03-11T04:02:30.072Z,71.7
2017-03-11T04:03:31.934Z,71.6
2017-03-11T04:04:33.827Z,71.7
2017-03-11T04:05:35.685Z,71.7
2017-03-11T04:06:37.590Z,71.8
2017-03-11T04:07:39.481Z,71.8
2017-03-11T04:08:41.345Z,71.8
2017-03-11T04:09:43.207Z,71.8
2017-03-11T04:10:45.063Z,71.7
2017-03-11T04:11:46.935Z,71.7
2017-03-11T04:12:49.269Z,71.7
2017-03-11T04:13:51.135Z,71.7
2017-03-11T04:14:53.004Z,71.7
2017-03-11T04:15:54.866Z,71.7
2017-03-11T04:16:56.741Z,71.6
2017-03-11T04:17:58.616Z,71.6
2017-03-11T04:19:01.322Z,71.7
2017-03-11T04:20:03.190Z,71.7
2017-03-11T04:21:05.481Z,71.8
2017-03-11T04:22:07.795Z,71.8
2017-03-11T04:23:09.659Z,71.8
2017-03-11T04:24:11.953Z,71.8
2017-03-11T04:25:14.243Z,71.8
2017-03-11T04:26:16.542Z,71.7
2017-03-11T04:27:18.419Z,71.8
2017-03-11T04:28:20.281Z,71.8
2017-03-11T04:29:22.199Z,71.7
2017-03-11T04:30:24.065Z,71.8
2017-03-11T04:31:26.358Z,71.7
2017-03-11T04:32:28.654Z,71.6
2017-03-11T04:33:30.516Z,71.7
2017-03-11T04:34:32.378Z,71.7
2017-03-11T04:35:34.244Z,71.7
2017-03-11T04:36:36.084Z,71.7
2017-03-11T04:37:37.989Z,71.8
2017-03-11T04:38:39.853Z,71.8
2017-03-11T04:39:41.722Z,71.9
2017-03-11T04:40:44.418Z,71.9
2017-03-11T04:41:46.302Z,71.8
2017-03-11T04:42:48.153Z,71.8
2017-03-11T04:43:50.457Z,71.8
2017-03-11T04:44:52.734Z,71.8
2017-03-11T04:45:55.058Z,71.8
2017-03-11T04:46:57.354Z,71.8
2017-03-11T04:47:59.212Z,71.8
2017-03-11T04:49:01.100Z,71.8
2017-03-11T04:50:02.973Z,71.8
2017-03-11T04:51:05.280Z,71.8
2017-03-11T04:52:07.168Z,71.7
2017-03-11T04:53:09.474Z,71.7
2017-03-11T04:54:11.347Z,71.8
2017-03-11T04:55:13.222Z,71.8
2017-03-11T04:56:15.106Z,71.8
2017-03-11T04:57:17.409Z,71.8
2017-03-11T04:58:20.124Z,71.8
2017-03-11T04:59:22.426Z,71.8
2017-03-11T05:00:24.283Z,71.7
2017-03-11T05:01:26.169Z,71.9
2017-03-11T05:02:28.444Z,71.9
2017-03-11T05:03:30.746Z,71.7
2017-03-11T05:04:32.606Z,71.8
2017-03-11T05:05:34.959Z,71.7
2017-03-11T05:06:36.837Z,71.8
2017-03-11T05:07:38.694Z,71.8
2017-03-11T05:08:40.579Z,71.8
2017-03-11T05:09:42.465Z,71.8
2017-03-11T05:10:45.157Z,71.8
2017-03-11T05:11:47.886Z,71.8
2017-03-11T05:12:49.753Z,71.7
2017-03-11T05:13:52.048Z,71.7
2017-03-11T05:14:53.906Z,71.7
2017-03-11T05:15:55.780Z,71.7
2017-03-11T05:16:58.066Z,71.7
2017-03-11T05:18:00.344Z,71.8
2017-03-11T05:19:02.244Z,71.8
2017-03-11T05:20:04.103Z,71.9
2017-03-11T05:21:05.972Z,71.9
2017-03-11T05:22:07.840Z,71.8
2017-03-11T05:23:09.739Z,71.8
2017-03-11T05:24:11.588Z,71.8
2017-03-11T05:25:13.462Z,71.9
2017-03-11T05:26:15.756Z,71.9
2017-03-11T05:27:17.640Z,71.8
2017-03-11T05:28:19.483Z,71.9
2017-03-11T05:29:21.346Z,71.8
2017-03-11T05:30:23.629Z,71.8
2017-03-11T05:31:26.347Z,71.7
2017-03-11T05:32:28.628Z,71.8
2017-03-11T05:33:30.487Z,71.8
2017-03-11T05:34:32.370Z,71.8
2017-03-11T05:35:34.232Z,71.9
2017-03-11T05:36:36.097Z,71.9
2017-03-11T05:37:38.387Z,71.9
2017-03-11T05:38:40.669Z,71.9
2017-03-11T05:39:42.546Z,71.8
2017-03-11T05:40:44.435Z,71.9
2017-03-11T05:41:46.310Z,71.8
2017-03-11T05:42:48.187Z,71.9
2017-03-11T05:43:50.123Z,71.9
2017-03-11T05:44:51.988Z,72
2017-03-11T05:45:53.843Z,72
2017-03-11T05:46:55.735Z,72
2017-03-11T05:47:57.604Z,72
2017-03-11T05:48:59.449Z,72
2017-03-11T05:50:02.183Z,72.1
2017-03-11T05:51:04.512Z,72.1
2017-03-11T05:52:06.370Z,72.1
2017-03-11T05:53:08.256Z,72.1
2017-03-11T05:54:10.988Z,72.1
2017-03-11T05:55:13.295Z,72.1
2017-03-11T05:56:15.175Z,72.2
2017-03-11T05:57:17.047Z,72.1
2017-03-11T05:58:18.916Z,72.2
2017-03-11T05:59:21.255Z,72.1
2017-03-11T06:00:23.469Z,72.1
2017-03-11T06:01:25.762Z,72.1
2017-03-11T06:02:27.627Z,72
2017-03-11T06:03:52.682Z,72
2017-03-11T06:04:59.229Z,72
2017-03-11T06:06:01.163Z,72
2017-03-11T06:07:03.108Z,72
2017-03-11T06:08:04.995Z,72
2017-03-11T06:09:07.436Z,72
2017-03-11T06:10:09.415Z,72
2017-03-11T06:11:11.497Z,72
2017-03-11T06:12:13.460Z,72
2017-03-11T06:13:15.792Z,72
2017-03-11T06:14:17.665Z,72
2017-03-11T06:15:19.955Z,72
2017-03-11T06:16:21.852Z,72
2017-03-11T06:17:23.736Z,72
2017-03-11T06:18:25.610Z,72
2017-03-11T06:19:27.504Z,72
2017-03-11T06:20:29.353Z,72
2017-03-11T06:21:31.248Z,72
2017-03-11T06:22:33.123Z,72
2017-03-11T06:23:35.427Z,72.1
2017-03-11T06:24:37.289Z,72.1
2017-03-11T06:25:39.235Z,72.1
2017-03-11T06:26:41.562Z,71.8
2017-03-11T06:27:43.407Z,71.7
2017-03-11T06:28:45.351Z,71.6
2017-03-11T06:29:47.349Z,71.6
2017-03-11T06:30:49.709Z,71.6
2017-03-11T06:31:51.610Z,71.6
2017-03-11T06:32:53.586Z,71.7
2017-03-11T06:33:55.620Z,71.8
2017-03-11T06:34:58.034Z,71.8
2017-03-11T06:36:00.440Z,71.8
2017-03-11T06:37:02.347Z,71.9
2017-03-11T06:38:04.219Z,71.9
2017-03-11T06:39:06.098Z,71.8
2017-03-11T06:40:07.991Z,71.9
2017-03-11T06:41:10.288Z,71.9
2017-03-11T06:42:12.192Z,71.7
2017-03-11T06:43:14.082Z,71.7
2017-03-11T06:44:15.971Z,71.7
2017-03-11T06:45:17.825Z,71.7
2017-03-11T06:46:19.744Z,71.7
2017-03-11T06:47:21.646Z,71.7
2017-03-11T06:48:23.925Z,71.7
2017-03-11T06:49:26.226Z,71.7
2017-03-11T06:50:28.951Z,71.7
2017-03-11T06:51:31.256Z,71.7
2017-03-11T06:52:33.144Z,71.7
2017-03-11T06:53:35.010Z,71.6
2017-03-11T06:54:36.882Z,71.7
2017-03-11T06:55:39.163Z,71.7
2017-03-11T06:56:41.481Z,71.7
2017-03-11T06:57:43.782Z,71.7
2017-03-11T06:58:45.639Z,71.7
2017-03-11T06:59:48.040Z,71.7
2017-03-11T07:00:49.956Z,71.7
2017-03-11T07:01:51.949Z,71.6
2017-03-11T07:02:54.296Z,71.6
2017-03-11T07:03:56.821Z,71.5
2017-03-11T07:04:58.816Z,71.5
2017-03-11T07:06:01.307Z,71.4
2017-03-11T07:07:03.277Z,71.3
2017-03-11T07:08:06.228Z,71.5
2017-03-11T07:09:08.161Z,71.7
2017-03-11T07:10:10.230Z,71.7
2017-03-11T07:11:12.229Z,71.7
2017-03-11T07:12:14.143Z,71.7
2017-03-11T07:13:16.033Z,71.7
2017-03-11T07:14:17.933Z,71.9
2017-03-11T07:15:19.859Z,71.9
2017-03-11T07:16:22.004Z,71.8
2017-03-11T07:17:23.924Z,71.7
2017-03-11T07:18:25.919Z,71.7
2017-03-11T07:19:27.824Z,71.7
2017-03-11T07:20:29.807Z,71.7
2017-03-11T07:21:31.894Z,71.7
2017-03-11T07:22:34.183Z,71.8
2017-03-11T07:23:36.930Z,71.8
2017-03-11T07:24:38.838Z,71.9
2017-03-11T07:25:40.793Z,71.7
2017-03-11T07:26:42.990Z,71.9
2017-03-11T07:27:44.895Z,71.8
2017-03-11T07:28:46.869Z,71.7
2017-03-11T07:29:49.205Z,71.7
2017-03-11T07:30:51.561Z,71.6
2017-03-11T07:31:53.427Z,71.7
2017-03-11T07:32:55.784Z,71.7
2017-03-11T07:33:57.707Z,71.8
2017-03-11T07:34:59.644Z,71.8
2017-03-11T07:36:01.960Z,71.8
2017-03-11T07:37:04.061Z,71.8
2017-03-11T07:38:05.937Z,71.5
2017-03-11T07:39:08.119Z,71.4
2017-03-11T07:40:10.414Z,71.5
2017-03-11T07:41:12.472Z,71.4
2017-03-11T07:42:14.359Z,71.4
2017-03-11T07:43:16.254Z,71.3
2017-03-11T07:44:18.130Z,71.4
2017-03-11T07:45:20.009Z,71.4
2017-03-11T07:46:21.955Z,71.4
2017-03-11T07:47:24.136Z,71.5
2017-03-11T07:48:26.064Z,71.3
2017-03-11T07:49:27.942Z,71.4
2017-03-11T07:50:29.952Z,71.4
2017-03-11T07:51:32.279Z,71.4
2017-03-11T07:52:34.576Z,71.4
2017-03-11T07:53:36.466Z,71.3
2017-03-11T07:54:38.404Z,71.2
2017-03-11T07:55:40.302Z,71.2
2017-03-11T07:56:42.205Z,71.2
2017-03-11T07:57:44.097Z,71.3
2017-03-11T07:58:46.711Z,71.4
2017-03-11T07:59:49.058Z,71.4
2017-03-11T08:00:51.369Z,71.5
2017-03-11T08:01:53.719Z,71.6
2017-03-11T08:02:55.618Z,71.7
2017-03-11T08:03:58.771Z,71.7
2017-03-11T08:05:00.693Z,71.7
2017-03-11T08:06:02.594Z,71.9
2017-03-11T08:07:04.958Z,71.9
2017-03-11T08:08:06.904Z,71.8
2017-03-11T08:09:08.792Z,71.9
2017-03-11T08:10:10.750Z,71.7
2017-03-11T08:11:12.804Z,71.7
2017-03-11T08:12:14.700Z,71.7
2017-03-11T08:13:16.661Z,71.8
2017-03-11T08:14:18.941Z,71.8
2017-03-11T08:15:20.916Z,71.8
2017-03-11T08:16:23.015Z,71.7
2017-03-11T08:17:24.900Z,71.7
2017-03-11T08:18:26.751Z,71.7
2017-03-11T08:19:28.680Z,71.7
2017-03-11T08:20:30.795Z,71.7
2017-03-11T08:21:33.574Z,71.6
2017-03-11T08:22:35.481Z,71.7
2017-03-11T08:23:37.403Z,71.7
2017-03-11T08:24:40.208Z,71.7
2017-03-11T08:25:42.134Z,71.5
2017-03-11T08:26:44.489Z,71.5
2017-03-11T08:27:46.372Z,71.6
2017-03-11T08:28:48.749Z,71.6
2017-03-11T08:29:51.501Z,71.7
2017-03-11T08:30:53.835Z,71.7
2017-03-11T08:31:55.730Z,71.7
2017-03-11T08:32:58.073Z,71.6
2017-03-11T08:33:59.957Z,71.6
2017-03-11T08:35:02.399Z,71.7
2017-03-11T08:36:04.751Z,71.7
2017-03-11T08:37:06.689Z,71.7
2017-03-11T08:38:09.015Z,71.7
2017-03-11T08:39:11.781Z,71.7
2017-03-11T08:40:13.723Z,71.6
2017-03-11T08:41:15.621Z,71.7
2017-03-11T08:42:17.968Z,71.8
2017-03-11T08:43:19.984Z,71.9
2017-03-11T08:44:21.884Z,71.7
2017-03-11T08:45:23.767Z,71.6
2017-03-11T08:46:25.629Z,71.5
2017-03-11T08:47:27.777Z,70.6
2017-03-11T08:48:29.650Z,70.5
2017-03-11T08:49:31.978Z,70.2
2017-03-11T08:50:33.865Z,70.3
2017-03-11T08:51:35.742Z,70.3
2017-03-11T08:52:37.623Z,70.3
2017-03-11T08:53:39.531Z,70.4
2017-03-11T08:54:41.832Z,70.4
2017-03-11T08:55:44.139Z,70.3
2017-03-11T08:56:46.461Z,70.3
2017-03-11T08:57:49.248Z,70.2
2017-03-11T08:58:51.202Z,70.1
2017-03-11T08:59:53.079Z,70.1
2017-03-11T09:00:54.981Z,70.1
2017-03-11T09:01:56.895Z,70
2017-03-11T09:02:58.816Z,70
2017-03-11T09:04:01.142Z,69.9
2017-03-11T09:05:03.040Z,69.8
2017-03-11T09:06:04.937Z,69.8
2017-03-11T09:07:06.856Z,69.7
2017-03-11T09:08:08.747Z,69.6
2017-03-11T09:09:10.626Z,69.6
2017-03-11T09:10:12.519Z,69.7
2017-03-11T09:11:15.263Z,69.9
2017-03-11T09:12:17.147Z,70
2017-03-11T09:13:19.067Z,70
2017-03-11T09:14:20.943Z,70
2017-03-11T09:15:22.872Z,70
2017-03-11T09:16:24.776Z,69.8
2017-03-11T09:17:27.100Z,69.7
2017-03-11T09:18:29.423Z,69.7
2017-03-11T09:19:31.328Z,69.7
2017-03-11T09:20:33.643Z,69.9
2017-03-11T09:21:35.955Z,69.9
2017-03-11T09:22:37.841Z,69.9
2017-03-11T09:23:39.745Z,70
2017-03-11T09:24:41.611Z,70
2017-03-11T09:25:44.343Z,70.1
2017-03-11T09:26:46.221Z,70.1
2017-03-11T09:27:48.123Z,70
2017-03-11T09:28:50.414Z,69.8
2017-03-11T09:29:52.332Z,69.8
2017-03-11T09:30:54.639Z,69.9
2017-03-11T09:31:57.028Z,69.9
2017-03-11T09:32:58.910Z,70
2017-03-11T09:34:00.802Z,70.1
2017-03-11T09:35:03.123Z,70.3
2017-03-11T09:36:05.415Z,70.2
2017-03-11T09:37:07.292Z,70.2
2017-03-11T09:38:09.194Z,70.2
2017-03-11T09:39:11.525Z,70.1
2017-03-11T09:40:13.397Z,70.1
2017-03-11T09:41:15.264Z,70.1
2017-03-11T09:42:17.127Z,70.1
2017-03-11T09:43:18.979Z,70.2
2017-03-11T09:44:20.902Z,70
2017-03-11T09:45:22.794Z,69.8
2017-03-11T09:46:24.699Z,69.7
2017-03-11T09:47:26.581Z,69.9
2017-03-11T09:48:28.453Z,69.9
2017-03-11T09:49:31.194Z,69.9
2017-03-11T09:50:33.495Z,69.9
2017-03-11T09:51:35.809Z,70.1
2017-03-11T09:52:38.097Z,70
2017-03-11T09:53:40.407Z,70
2017-03-11T09:54:42.293Z,70
2017-03-11T09:55:44.605Z,70
2017-03-11T09:56:46.488Z,70
2017-03-11T09:57:48.816Z,70
2017-03-11T09:58:50.701Z,70
2017-03-11T09:59:52.587Z,70.1
2017-03-11T10:00:54.905Z,69.9
2017-03-11T10:01:57.646Z,69.9
2017-03-11T10:02:59.529Z,69.8
2017-03-11T10:04:01.485Z,70
2017-03-11T10:05:03.780Z,70
2017-03-11T10:06:06.105Z,70.2
2017-03-11T10:07:07.991Z,70
2017-03-11T10:08:09.836Z,69.9
2017-03-11T10:09:11.747Z,69.9
2017-03-11T10:10:13.618Z,69.9
2017-03-11T10:11:15.512Z,69.9
2017-03-11T10:12:17.405Z,69.7
2017-03-11T10:13:19.369Z,69.7
2017-03-11T10:14:21.265Z,69.7
2017-03-11T10:15:23.133Z,69.7
2017-03-11T10:16:25.032Z,69.6
2017-03-11T10:17:27.307Z,69.5
2017-03-11T10:18:29.222Z,69.4
2017-03-11T10:19:31.099Z,69.3
2017-03-11T10:20:33.402Z,69.2
2017-03-11T10:21:35.722Z,69.3
2017-03-11T10:22:38.041Z,69.4
2017-03-11T10:23:39.921Z,69.5
2017-03-11T10:24:41.794Z,69.6
2017-03-11T10:25:43.652Z,69.6
2017-03-11T10:26:45.582Z,69.8
2017-03-11T10:27:47.461Z,69.8
2017-03-11T10:28:49.373Z,69.9
2017-03-11T10:29:51.687Z,70
2017-03-11T10:30:53.579Z,70.1
2017-03-11T10:31:55.455Z,70
2017-03-11T10:32:57.779Z,70.2
2017-03-11T10:33:59.635Z,70.3
2017-03-11T10:35:01.528Z,70.3
2017-03-11T10:36:03.834Z,70.3
2017-03-11T10:37:05.735Z,70.2
2017-03-11T10:38:08.045Z,70.3
2017-03-11T10:39:09.914Z,70.3
2017-03-11T10:40:11.798Z,70.6
2017-03-11T10:41:13.682Z,70.8
2017-03-11T10:42:15.996Z,70.9
2017-03-11T10:43:17.909Z,70.9
2017-03-11T10:44:19.794Z,70.8
2017-03-11T10:45:21.729Z,70.4
2017-03-11T10:46:23.606Z,70
2017-03-11T10:47:25.538Z,69.6
2017-03-11T10:48:27.396Z,69.1
2017-03-11T10:49:29.277Z,68.8
2017-03-11T10:50:32.438Z,68.8
2017-03-11T10:51:34.298Z,68.8
2017-03-11T10:52:36.189Z,68.8
2017-03-11T10:53:38.486Z,69
2017-03-11T10:54:40.800Z,69.1
2017-03-11T10:55:42.666Z,69.3
2017-03-11T10:56:44.989Z,69.3
2017-03-11T10:57:47.719Z,69.4
2017-03-11T10:58:49.595Z,69.3
2017-03-11T10:59:51.484Z,69.1
2017-03-11T11:00:53.799Z,69.1
2017-03-11T11:01:56.114Z,69.1
2017-03-11T11:02:58.041Z,68.7
2017-03-11T11:03:59.913Z,68.5
2017-03-11T11:05:02.229Z,68.2
2017-03-11T11:06:04.108Z,68.1
2017-03-11T11:07:06.008Z,68.2
2017-03-11T11:08:08.291Z,68
2017-03-11T11:09:10.181Z,67.9
2017-03-11T11:10:12.908Z,67.8
2017-03-11T11:11:15.211Z,67.8
2017-03-11T11:12:17.063Z,67.5
2017-03-11T11:13:18.945Z,67.4
2017-03-11T11:14:21.244Z,67.5
2017-03-11T11:15:23.179Z,67.7
2017-03-11T11:16:25.036Z,68.1
2017-03-11T11:17:26.942Z,68.3
2017-03-11T11:18:28.840Z,68.8
2017-03-11T11:19:30.728Z,69.1
2017-03-11T11:20:32.591Z,69.4
2017-03-11T11:21:34.451Z,69.6
2017-03-11T11:22:36.341Z,69.4
2017-03-11T11:23:38.243Z,68.8
2017-03-11T11:24:40.139Z,68.4
2017-03-11T11:25:42.465Z,68.1
2017-03-11T11:26:44.767Z,67.9
2017-03-11T11:27:46.656Z,68.1
2017-03-11T11:28:48.556Z,68.5
2017-03-11T11:29:50.873Z,68.8
2017-03-11T11:30:53.174Z,68.9
2017-03-11T11:31:55.115Z,68.9
2017-03-11T11:32:56.972Z,68.7
2017-03-11T11:33:58.877Z,68
2017-03-11T11:35:00.739Z,67.5
2017-03-11T11:36:02.739Z,67
2017-03-11T11:37:05.027Z,66.8
2017-03-11T11:38:06.910Z,66.6
2017-03-11T11:39:08.794Z,66.8
2017-03-11T11:40:10.670Z,66.8
2017-03-11T11:41:12.575Z,66.7
2017-03-11T11:42:14.467Z,66.9
2017-03-11T11:43:16.773Z,67.2
2017-03-11T11:44:18.672Z,67.5
2017-03-11T11:45:20.986Z,67.7
2017-03-11T11:46:22.857Z,68
2017-03-11T11:47:25.155Z,67.9
2017-03-11T11:48:27.105Z,67.5
2017-03-11T11:49:28.984Z,67.2
2017-03-11T11:50:31.286Z,66.9
2017-03-11T11:51:33.176Z,66.4
2017-03-11T11:52:35.052Z,65.8
2017-03-11T11:53:37.377Z,65.5
2017-03-11T11:54:39.270Z,65.2
2017-03-11T11:55:41.141Z,65
2017-03-11T11:56:43.044Z,65.1
2017-03-11T11:57:44.916Z,65.1
2017-03-11T11:58:46.808Z,65.2
2017-03-11T11:59:49.092Z,65.2
2017-03-11T12:00:50.992Z,65.3
2017-03-11T12:01:53.315Z,65.2
2017-03-11T12:02:55.189Z,65.1
2017-03-11T12:03:57.082Z,65.1
2017-03-11T12:04:58.953Z,65.2
2017-03-11T12:06:00.841Z,65.2
2017-03-11T12:07:03.197Z,65.4
2017-03-11T12:08:05.487Z,65.7
2017-03-11T12:09:07.399Z,66
2017-03-11T12:10:09.292Z,66.3
2017-03-11T12:11:11.201Z,66.5
2017-03-11T12:12:13.062Z,66.7
2017-03-11T12:13:15.360Z,66.7
2017-03-11T12:14:17.241Z,66.6
2017-03-11T12:15:19.581Z,66.5
2017-03-11T12:16:21.468Z,66.4
2017-03-11T12:17:23.362Z,66.4
2017-03-11T12:18:25.243Z,66.3
2017-03-11T12:19:27.151Z,66.1
2017-03-11T12:20:29.035Z,65.5
2017-03-11T12:21:30.922Z,65.1
2017-03-11T12:22:32.795Z,65.2
2017-03-11T12:23:34.690Z,65.2
2017-03-11T12:24:37.033Z,65
2017-03-11T12:25:39.362Z,64.7
2017-03-11T12:26:41.276Z,64.2
2017-03-11T12:27:43.583Z,63.6
2017-03-11T12:28:45.486Z,63.3
2017-03-11T12:29:47.798Z,62.9
2017-03-11T12:30:50.125Z,62.4
2017-03-11T12:31:52.867Z,62.2
2017-03-11T12:32:55.175Z,62.1
2017-03-11T12:33:57.096Z,61.9
2017-03-11T12:34:58.942Z,61.8
2017-03-11T12:36:00.825Z,61.6
2017-03-11T12:37:02.722Z,61.1
2017-03-11T12:38:04.636Z,60.5
2017-03-11T12:39:06.521Z,60.1
2017-03-11T12:40:08.421Z,60.1
2017-03-11T12:41:10.759Z,60.5
2017-03-11T12:42:12.624Z,60.9
2017-03-11T12:43:14.575Z,61.2
2017-03-11T12:44:16.472Z,61.5
2017-03-11T12:45:18.349Z,61.5
2017-03-11T12:46:20.677Z,61.2
2017-03-11T12:47:22.985Z,61
2017-03-11T12:48:24.876Z,60.7
2017-03-11T12:49:26.748Z,60.8
2017-03-11T12:50:28.642Z,60.7
2017-03-11T12:51:30.970Z,60.7
2017-03-11T12:52:33.276Z,60.6
2017-03-11T12:53:35.220Z,60.6
2017-03-11T12:54:37.527Z,60.7
2017-03-11T12:55:39.863Z,60.6
2017-03-11T12:56:41.764Z,60.4
2017-03-11T12:57:43.626Z,60.2
2017-03-11T12:58:45.960Z,60.2
2017-03-11T12:59:48.274Z,60.1
2017-03-11T13:00:50.176Z,60
2017-03-11T13:01:52.481Z,60
2017-03-11T13:02:54.806Z,60
2017-03-11T13:03:57.115Z,59.8
2017-03-11T13:04:59.000Z,59.6
2017-03-11T13:06:01.325Z,59.5
2017-03-11T13:07:03.220Z,59.8
2017-03-11T13:08:05.123Z,59.7
2017-03-11T13:09:06.998Z,59.7
2017-03-11T13:10:08.891Z,59.5
2017-03-11T13:11:10.804Z,59.5
2017-03-11T13:12:12.676Z,59.3
2017-03-11T13:13:14.570Z,59.2
2017-03-11T13:14:16.450Z,59.3
2017-03-11T13:15:18.350Z,59.5
2017-03-11T13:16:20.240Z,59.5
2017-03-11T13:17:22.150Z,59.5
2017-03-11T13:18:24.463Z,59.6
2017-03-11T13:19:26.360Z,59.9
2017-03-11T13:20:28.701Z,60.2
2017-03-11T13:21:30.697Z,60.4
2017-03-11T13:22:32.618Z,60.6
2017-03-11T13:23:34.991Z,60.2
2017-03-11T13:24:36.903Z,60
2017-03-11T13:25:38.951Z,60
2017-03-11T13:26:40.839Z,59.8
2017-03-11T13:27:42.732Z,59.6
2017-03-11T13:28:45.046Z,59.4
2017-03-11T13:29:47.046Z,59.6
2017-03-11T13:30:49.442Z,59.6
2017-03-11T13:31:51.405Z,59.7
2017-03-11T13:32:53.430Z,60
2017-03-11T13:33:55.864Z,60
2017-03-11T13:34:57.775Z,60.1
2017-03-11T13:35:59.787Z,60.1
2017-03-11T13:37:02.110Z,60.1
2017-03-11T13:38:03.990Z,60.1
2017-03-11T13:39:06.186Z,60
2017-03-11T13:40:08.146Z,59.6
2017-03-11T13:41:10.066Z,59.6
2017-03-11T13:42:12.103Z,59.6
2017-03-11T13:43:14.441Z,59.9
2017-03-11T13:44:16.757Z,60
2017-03-11T13:45:18.857Z,60
2017-03-11T13:46:20.766Z,60
2017-03-11T13:47:22.684Z,59.8
2017-03-11T13:48:24.605Z,59.6
2017-03-11T13:49:26.510Z,59.7
2017-03-11T13:50:28.439Z,59.8
2017-03-11T13:51:30.683Z,59.9
2017-03-11T13:52:33.118Z,59.9